CLA2 weather

L'Assomption Airport
L'Assomption, Quebec, Canada

Public forecast

Using degrees Celsius for public forecast. Weather courtesy of forecast.io.

METAR (pilot weather report)

Closest report is MontrĂ©al / Saint-Hubert Airport, 18.4 nm (34.2 km) S. Retrieved 2019/07/22 11:00 UTC (31 minutes ago):

CYHU 221100Z AUTO 03003KT 9SM CLR 17/13 A2993 RMK SLP137 DENSITY ALT 300FT

TAF (pilot weather forecast)

Closest forecast is MontrĂ©al / Saint-Hubert Airport, 18.4 nm (34.2 km) S. Retrieved 2019/07/22 06:42 UTC (5 hours ago):

TAF CYHU 220538Z 2206/2306 02005KT P6SM FEW100 SCT240 FM221100 04008KT P6SM BKN080 FM222300 36005KT P6SM -SHRA OVC050 FM230400 01012KT 3SM -SHRA BR BKN020 OVC040 RMK FCST BASED ON AUTO OBS. NXT FCST BY 221200Z